sensor_id;sensor_type;location;lat;lon;timestamp;pressure;altitude;pressure_sealevel;temperature;humidity
6028;BME280;3042;43.194;27.646;2023-01-10T00:00:30;101409.22;;;14.12;100.00
6028;BME280;3042;43.194;27.646;2023-01-10T00:03:01;101406.03;;;14.20;100.00
6028;BME280;3042;43.194;27.646;2023-01-10T00:05:29;101413.94;;;14.02;100.00
6028;BME280;3042;43.194;27.646;2023-01-10T00:07:56;101450.56;;;13.66;100.00
6028;BME280;3042;43.194;27.646;2023-01-10T00:10:24;101365.59;;;13.23;100.00
6028;BME280;3042;43.194;27.646;2023-01-10T00:12:53;101409.50;;;13.57;100.00
6028;BME280;3042;43.194;27.646;2023-01-10T00:15:38;101405.34;;;13.02;100.00
6028;BME280;3042;43.194;27.646;2023-01-10T00:18:05;101305.03;;;12.25;100.00
6028;BME280;3042;43.194;27.646;2023-01-10T00:20:32;101266.09;;;12.06;100.00
6028;BME280;3042;43.194;27.646;2023-01-10T00:22:59;101412.56;;;12.90;100.00
6028;BME280;3042;43.194;27.646;2023-01-10T00:25:28;101405.13;;;12.98;100.00
6028;BME280;3042;43.194;27.646;2023-01-10T00:27:56;101390.78;;;13.06;100.00
6028;BME280;3042;43.194;27.646;2023-01-10T00:30:29;101404.72;;;12.88;100.00
6028;BME280;3042;43.194;27.646;2023-01-10T00:32:58;101358.75;;;12.29;100.00
6028;BME280;3042;43.194;27.646;2023-01-10T00:35:26;101398.13;;;12.58;100.00
6028;BME280;3042;43.194;27.646;2023-01-10T00:37:53;101399.16;;;12.43;100.00
6028;BME280;3042;43.194;27.646;2023-01-10T00:40:26;101391.94;;;12.36;100.00
6028;BME280;3042;43.194;27.646;2023-01-10T00:42:55;101401.41;;;12.18;100.00
6028;BME280;3042;43.194;27.646;2023-01-10T00:45:43;101382.56;;;12.22;100.00
6028;BME280;3042;43.194;27.646;2023-01-10T00:48:12;101252.34;;;11.35;100.00
6028;BME280;3042;43.194;27.646;2023-01-10T00:50:40;101324.69;;;11.68;100.00
6028;BME280;3042;43.194;27.646;2023-01-10T00:53:09;101384.44;;;11.89;100.00
6028;BME280;3042;43.194;27.646;2023-01-10T00:55:36;101380.56;;;11.98;100.00
6028;BME280;3042;43.194;27.646;2023-01-10T00:58:05;101372.06;;;12.19;100.00
6028;BME280;3042;43.194;27.646;2023-01-10T01:00:33;101364.09;;;11.96;100.00
6028;BME280;3042;43.194;27.646;2023-01-10T01:03:01;101349.22;;;11.92;100.00
6028;BME280;3042;43.194;27.646;2023-01-10T01:05:28;101347.75;;;11.97;100.00
6028;BME280;3042;43.194;27.646;2023-01-10T01:07:56;101343.09;;;12.08;100.00
6028;BME280;3042;43.194;27.646;2023-01-10T01:10:24;101332.56;;;12.23;100.00
6028;BME280;3042;43.194;27.646;2023-01-10T01:12:56;101087.91;;;11.04;100.00
6028;BME280;3042;43.194;27.646;2023-01-10T01:15:25;101238.72;;;12.11;100.00
6028;BME280;3042;43.194;27.646;2023-01-10T01:17:54;101191.00;;;12.06;100.00
6028;BME280;3042;43.194;27.646;2023-01-10T01:20:22;101326.19;;;13.12;100.00
6028;BME280;3042;43.194;27.646;2023-01-10T01:22:50;101299.59;;;12.77;100.00
6028;BME280;3042;43.194;27.646;2023-01-10T01:25:17;101326.06;;;13.09;100.00
6028;BME280;3042;43.194;27.646;2023-01-10T01:27:44;101326.59;;;13.21;100.00
6028;BME280;3042;43.194;27.646;2023-01-10T01:30:12;101263.94;;;13.12;100.00
6028;BME280;3042;43.194;27.646;2023-01-10T01:32:39;101309.03;;;13.16;100.00
6028;BME280;3042;43.194;27.646;2023-01-10T01:35:09;101298.03;;;13.62;100.00
6028;BME280;3042;43.194;27.646;2023-01-10T01:37:40;101246.13;;;13.00;100.00
6028;BME280;3042;43.194;27.646;2023-01-10T01:40:10;101286.84;;;13.22;100.00
6028;BME280;3042;43.194;27.646;2023-01-10T01:42:38;101328.78;;;13.32;100.00
6028;BME280;3042;43.194;27.646;2023-01-10T01:45:32;101283.03;;;13.34;100.00
6028;BME280;3042;43.194;27.646;2023-01-10T01:48:06;101259.41;;;12.67;100.00
6028;BME280;3042;43.194;27.646;2023-01-10T01:50:37;101308.72;;;13.08;100.00
6028;BME280;3042;43.194;27.646;2023-01-10T01:53:10;101300.53;;;13.18;100.00
6028;BME280;3042;43.194;27.646;2023-01-10T01:55:40;101171.00;;;12.61;100.00
6028;BME280;3042;43.194;27.646;2023-01-10T01:58:12;101296.47;;;13.25;100.00
6028;BME280;3042;43.194;27.646;2023-01-10T02:00:40;101306.69;;;13.01;100.00
6028;BME280;3042;43.194;27.646;2023-01-10T02:03:07;101187.72;;;12.68;100.00
6028;BME280;3042;43.194;27.646;2023-01-10T02:05:36;101164.81;;;12.58;100.00
6028;BME280;3042;43.194;27.646;2023-01-10T02:08:05;101298.84;;;13.20;100.00
6028;BME280;3042;43.194;27.646;2023-01-10T02:10:38;101288.03;;;13.50;100.00
6028;BME280;3042;43.194;27.646;2023-01-10T02:13:08;101295.25;;;13.57;100.00
6028;BME280;3042;43.194;27.646;2023-01-10T02:15:37;101306.66;;;13.40;100.00
6028;BME280;3042;43.194;27.646;2023-01-10T02:18:05;101293.72;;;13.62;100.00
6028;BME280;3042;43.194;27.646;2023-01-10T02:20:39;101286.94;;;13.87;100.00
6028;BME280;3042;43.194;27.646;2023-01-10T02:23:28;101135.28;;;13.61;100.00
6028;BME280;3042;43.194;27.646;2023-01-10T02:32:23;101276.72;;;14.36;100.00
6028;BME280;3042;43.194;27.646;2023-01-10T02:35:01;101284.84;;;14.46;100.00
6028;BME280;3042;43.194;27.646;2023-01-10T02:37:43;101147.16;;;13.77;100.00
6028;BME280;3042;43.194;27.646;2023-01-10T02:40:18;101292.06;;;14.30;100.00
6028;BME280;3042;43.194;27.646;2023-01-10T02:42:53;101269.31;;;14.47;100.00
6028;BME280;3042;43.194;27.646;2023-01-10T02:45:27;100898.53;;;12.54;100.00
6028;BME280;3042;43.194;27.646;2023-01-10T02:47:57;101265.53;;;14.62;100.00
6028;BME280;3042;43.194;27.646;2023-01-10T02:50:43;101261.38;;;14.67;100.00
6028;BME280;3042;43.194;27.646;2023-01-10T02:53:17;101261.81;;;14.55;100.00
6028;BME280;3042;43.194;27.646;2023-01-10T02:58:54;101253.19;;;14.80;100.00
6028;BME280;3042;43.194;27.646;2023-01-10T03:01:30;101258.69;;;14.41;100.00
6028;BME280;3042;43.194;27.646;2023-01-10T03:04:06;101183.66;;;14.04;100.00
6028;BME280;3042;43.194;27.646;2023-01-10T03:06:43;101055.94;;;12.79;100.00
6028;BME280;3042;43.194;27.646;2023-01-10T03:09:15;101160.81;;;13.50;100.00
6028;BME280;3042;43.194;27.646;2023-01-10T03:11:48;101248.19;;;14.38;100.00
6028;BME280;3042;43.194;27.646;2023-01-10T03:14:21;101164.25;;;13.71;100.00
6028;BME280;3042;43.194;27.646;2023-01-10T03:16:53;101252.69;;;14.20;100.00
6028;BME280;3042;43.194;27.646;2023-01-10T03:19:25;101189.78;;;14.06;100.00
6028;BME280;3042;43.194;27.646;2023-01-10T03:21:56;101204.97;;;14.42;100.00
6028;BME280;3042;43.194;27.646;2023-01-10T03:24:25;101151.69;;;14.06;100.00
6028;BME280;3042;43.194;27.646;2023-01-10T03:26:57;101139.75;;;14.11;100.00
6028;BME280;3042;43.194;27.646;2023-01-10T03:29:30;101243.31;;;14.47;100.00
6028;BME280;3042;43.194;27.646;2023-01-10T03:32:02;101229.97;;;14.86;100.00
6028;BME280;3042;43.194;27.646;2023-01-10T03:34:33;101231.28;;;15.25;100.00
6028;BME280;3042;43.194;27.646;2023-01-10T03:37:04;101036.84;;;13.91;100.00
6028;BME280;3042;43.194;27.646;2023-01-10T03:39:43;101226.06;;;15.52;100.00
6028;BME280;3042;43.194;27.646;2023-01-10T03:42:19;101165.78;;;14.85;100.00
6028;BME280;3042;43.194;27.646;2023-01-10T03:45:00;101214.97;;;15.30;100.00
6028;BME280;3042;43.194;27.646;2023-01-10T03:47:32;101221.41;;;15.41;100.00
6028;BME280;3042;43.194;27.646;2023-01-10T03:50:05;101218.16;;;15.74;100.00
6028;BME280;3042;43.194;27.646;2023-01-10T03:52:34;101225.22;;;15.24;100.00
6028;BME280;3042;43.194;27.646;2023-01-10T03:55:03;100898.84;;;13.32;100.00
6028;BME280;3042;43.194;27.646;2023-01-10T03:57:31;101227.28;;;14.83;100.00
6028;BME280;3042;43.194;27.646;2023-01-10T03:59:59;101205.91;;;15.19;100.00
6028;BME280;3042;43.194;27.646;2023-01-10T04:02:27;101216.75;;;15.58;100.00
6028;BME280;3042;43.194;27.646;2023-01-10T04:04:55;100968.22;;;14.10;100.00
6028;BME280;3042;43.194;27.646;2023-01-10T04:07:25;100962.94;;;14.60;100.00
6028;BME280;3042;43.194;27.646;2023-01-10T04:09:52;101202.19;;;15.65;100.00
6028;BME280;3042;43.194;27.646;2023-01-10T04:12:21;101208.09;;;15.87;100.00
6028;BME280;3042;43.194;27.646;2023-01-10T04:14:49;101203.25;;;15.70;100.00
6028;BME280;3042;43.194;27.646;2023-01-10T04:17:16;101198.69;;;15.92;100.00
6028;BME280;3042;43.194;27.646;2023-01-10T04:19:44;101203.94;;;15.66;100.00
6028;BME280;3042;43.194;27.646;2023-01-10T04:22:11;101166.53;;;15.35;100.00
6028;BME280;3042;43.194;27.646;2023-01-10T04:24:43;101186.28;;;15.56;100.00
6028;BME280;3042;43.194;27.646;2023-01-10T04:27:11;101192.09;;;15.20;100.00
6028;BME280;3042;43.194;27.646;2023-01-10T04:29:39;101205.34;;;15.28;100.00
6028;BME280;3042;43.194;27.646;2023-01-10T04:32:07;101181.16;;;15.05;100.00
6028;BME280;3042;43.194;27.646;2023-01-10T04:34:35;101051.00;;;14.50;100.00
6028;BME280;3042;43.194;27.646;2023-01-10T04:37:02;101194.72;;;15.22;100.00
6028;BME280;3042;43.194;27.646;2023-01-10T04:39:29;101187.22;;;15.31;100.00
6028;BME280;3042;43.194;27.646;2023-01-10T04:41:58;101191.78;;;15.38;100.00
6028;BME280;3042;43.194;27.646;2023-01-10T04:44:25;101171.84;;;14.86;100.00
6028;BME280;3042;43.194;27.646;2023-01-10T04:46:52;101013.78;;;14.00;100.00
6028;BME280;3042;43.194;27.646;2023-01-10T04:49:20;101202.59;;;15.23;100.00
6028;BME280;3042;43.194;27.646;2023-01-10T04:51:47;100943.66;;;13.75;100.00
6028;BME280;3042;43.194;27.646;2023-01-10T04:54:17;101195.31;;;15.40;100.00
6028;BME280;3042;43.194;27.646;2023-01-10T04:56:46;101063.94;;;14.73;100.00
6028;BME280;3042;43.194;27.646;2023-01-10T05:02:58;100409.25;;;10.93;100.00
6028;BME280;3042;43.194;27.646;2023-01-10T05:08:26;100814.84;;;13.54;100.00
6028;BME280;3042;43.194;27.646;2023-01-10T05:15:57;101155.09;;;16.16;100.00
6028;BME280;3042;43.194;27.646;2023-01-10T05:31:25;101191.28;;;16.67;100.00
6028;BME280;3042;43.194;27.646;2023-01-10T05:33:53;101208.34;;;16.56;100.00
6028;BME280;3042;43.194;27.646;2023-01-10T05:36:20;101199.28;;;16.75;100.00
6028;BME280;3042;43.194;27.646;2023-01-10T05:38:48;101203.91;;;16.84;100.00
6028;BME280;3042;43.194;27.646;2023-01-10T05:41:15;101147.78;;;16.35;100.00
6028;BME280;3042;43.194;27.646;2023-01-10T05:43:42;101108.97;;;15.83;100.00
6028;BME280;3042;43.194;27.646;2023-01-10T05:46:10;101009.88;;;15.20;100.00
6028;BME280;3042;43.194;27.646;2023-01-10T05:48:38;101191.19;;;16.33;100.00
6028;BME280;3042;43.194;27.646;2023-01-10T05:51:06;101193.28;;;16.14;100.00
6028;BME280;3042;43.194;27.646;2023-01-10T05:53:33;101201.81;;;15.53;100.00
6028;BME280;3042;43.194;27.646;2023-01-10T05:56:01;101195.09;;;15.59;100.00
6028;BME280;3042;43.194;27.646;2023-01-10T05:58:29;101192.81;;;15.99;100.00
6028;BME280;3042;43.194;27.646;2023-01-10T06:00:56;100993.59;;;14.44;100.00
6028;BME280;3042;43.194;27.646;2023-01-10T06:03:24;101111.63;;;15.01;100.00
6028;BME280;3042;43.194;27.646;2023-01-10T06:05:53;101202.50;;;15.74;100.00
6028;BME280;3042;43.194;27.646;2023-01-10T06:08:20;101203.91;;;15.65;100.00
6028;BME280;3042;43.194;27.646;2023-01-10T06:10:48;101204.13;;;15.44;100.00
6028;BME280;3042;43.194;27.646;2023-01-10T06:13:15;101214.59;;;16.01;100.00
6028;BME280;3042;43.194;27.646;2023-01-10T06:15:42;101212.38;;;16.13;100.00
6028;BME280;3042;43.194;27.646;2023-01-10T06:18:10;101164.63;;;15.86;100.00
6028;BME280;3042;43.194;27.646;2023-01-10T06:20:37;101215.44;;;16.00;100.00
6028;BME280;3042;43.194;27.646;2023-01-10T06:23:06;101136.63;;;15.78;100.00
6028;BME280;3042;43.194;27.646;2023-01-10T06:25:34;101199.06;;;15.75;100.00
6028;BME280;3042;43.194;27.646;2023-01-10T06:28:05;101201.81;;;16.09;100.00
6028;BME280;3042;43.194;27.646;2023-01-10T06:30:32;101202.72;;;16.11;100.00
6028;BME280;3042;43.194;27.646;2023-01-10T06:33:00;101054.19;;;15.52;100.00
6028;BME280;3042;43.194;27.646;2023-01-10T06:35:28;101192.91;;;16.02;100.00
6028;BME280;3042;43.194;27.646;2023-01-10T06:37:55;101201.19;;;15.89;100.00
6028;BME280;3042;43.194;27.646;2023-01-10T06:40:25;101180.63;;;16.28;100.00
6028;BME280;3042;43.194;27.646;2023-01-10T06:42:52;101205.09;;;16.33;100.00
6028;BME280;3042;43.194;27.646;2023-01-10T06:45:19;101196.81;;;16.48;100.00
6028;BME280;3042;43.194;27.646;2023-01-10T06:47:47;101158.44;;;15.82;100.00
6028;BME280;3042;43.194;27.646;2023-01-10T06:50:14;101213.34;;;15.61;100.00
6028;BME280;3042;43.194;27.646;2023-01-10T06:52:41;100997.56;;;14.59;100.00
6028;BME280;3042;43.194;27.646;2023-01-10T06:55:09;101210.00;;;15.65;100.00
6028;BME280;3042;43.194;27.646;2023-01-10T06:57:38;101198.41;;;16.11;100.00
6028;BME280;3042;43.194;27.646;2023-01-10T07:00:07;101194.88;;;16.11;100.00
6028;BME280;3042;43.194;27.646;2023-01-10T07:02:36;101213.50;;;15.93;100.00
6028;BME280;3042;43.194;27.646;2023-01-10T07:05:04;101216.41;;;15.73;100.00
6028;BME280;3042;43.194;27.646;2023-01-10T07:07:31;101217.50;;;15.81;100.00
6028;BME280;3042;43.194;27.646;2023-01-10T07:09:58;101220.38;;;15.91;100.00
6028;BME280;3042;43.194;27.646;2023-01-10T07:12:26;101215.53;;;15.74;100.00
6028;BME280;3042;43.194;27.646;2023-01-10T07:14:54;101174.28;;;15.88;100.00
6028;BME280;3042;43.194;27.646;2023-01-10T07:17:22;101221.19;;;15.88;100.00
6028;BME280;3042;43.194;27.646;2023-01-10T07:19:49;101228.31;;;15.68;100.00
6028;BME280;3042;43.194;27.646;2023-01-10T07:22:16;101227.47;;;15.95;100.00
6028;BME280;3042;43.194;27.646;2023-01-10T07:24:43;101223.59;;;15.55;100.00
6028;BME280;3042;43.194;27.646;2023-01-10T07:27:10;101227.91;;;16.10;100.00
6028;BME280;3042;43.194;27.646;2023-01-10T07:29:37;101220.53;;;15.95;100.00
6028;BME280;3042;43.194;27.646;2023-01-10T07:32:06;101209.78;;;16.45;100.00
6028;BME280;3042;43.194;27.646;2023-01-10T07:34:33;101216.34;;;16.31;100.00
6028;BME280;3042;43.194;27.646;2023-01-10T07:37:01;101218.00;;;16.29;100.00
6028;BME280;3042;43.194;27.646;2023-01-10T07:39:28;101167.50;;;16.25;100.00
6028;BME280;3042;43.194;27.646;2023-01-10T07:41:55;101213.81;;;16.34;100.00
6028;BME280;3042;43.194;27.646;2023-01-10T07:44:22;101213.13;;;16.41;100.00
6028;BME280;3042;43.194;27.646;2023-01-10T07:46:50;101201.28;;;16.52;100.00
6028;BME280;3042;43.194;27.646;2023-01-10T07:49:18;101154.31;;;16.52;100.00
6028;BME280;3042;43.194;27.646;2023-01-10T07:51:45;101205.00;;;16.60;100.00
6028;BME280;3042;43.194;27.646;2023-01-10T07:54:13;101206.69;;;16.58;100.00
6028;BME280;3042;43.194;27.646;2023-01-10T07:56:40;101177.81;;;16.52;100.00
6028;BME280;3042;43.194;27.646;2023-01-10T07:59:07;101203.16;;;16.88;100.00
6028;BME280;3042;43.194;27.646;2023-01-10T08:01:34;101203.63;;;16.75;100.00
6028;BME280;3042;43.194;27.646;2023-01-10T08:04:01;101021.50;;;16.27;100.00
6028;BME280;3042;43.194;27.646;2023-01-10T08:06:30;101058.63;;;16.16;100.00
6028;BME280;3042;43.194;27.646;2023-01-10T08:08:58;101210.09;;;16.87;100.00
6028;BME280;3042;43.194;27.646;2023-01-10T08:11:25;101197.94;;;16.88;100.00
6028;BME280;3042;43.194;27.646;2023-01-10T08:13:52;101032.78;;;16.25;100.00
6028;BME280;3042;43.194;27.646;2023-01-10T08:16:19;101193.56;;;17.22;100.00
6028;BME280;3042;43.194;27.646;2023-01-10T08:18:46;101189.91;;;17.51;100.00
6028;BME280;3042;43.194;27.646;2023-01-10T08:21:13;101167.22;;;17.50;100.00
6028;BME280;3042;43.194;27.646;2023-01-10T08:23:42;101183.44;;;17.73;100.00
6028;BME280;3042;43.194;27.646;2023-01-10T08:26:09;101177.94;;;17.63;100.00
6028;BME280;3042;43.194;27.646;2023-01-10T08:28:37;101199.41;;;17.48;100.00
6028;BME280;3042;43.194;27.646;2023-01-10T08:31:05;100891.88;;;16.21;100.00
6028;BME280;3042;43.194;27.646;2023-01-10T08:33:32;101179.91;;;18.11;100.00
6028;BME280;3042;43.194;27.646;2023-01-10T08:36:00;101179.59;;;18.40;100.00
6028;BME280;3042;43.194;27.646;2023-01-10T08:38:27;101177.31;;;18.58;100.00
6028;BME280;3042;43.194;27.646;2023-01-10T08:40:57;101093.25;;;18.38;100.00
6028;BME280;3042;43.194;27.646;2023-01-10T08:43:24;101179.03;;;18.54;100.00
6028;BME280;3042;43.194;27.646;2023-01-10T08:45:51;101184.63;;;18.30;100.00
6028;BME280;3042;43.194;27.646;2023-01-10T08:48:18;101162.69;;;18.69;100.00
6028;BME280;3042;43.194;27.646;2023-01-10T08:50:45;101152.59;;;18.88;100.00
6028;BME280;3042;43.194;27.646;2023-01-10T08:53:13;101159.38;;;18.76;100.00
6028;BME280;3042;43.194;27.646;2023-01-10T08:55:40;101165.78;;;18.47;100.00
6028;BME280;3042;43.194;27.646;2023-01-10T08:58:09;101157.66;;;18.79;100.00
6028;BME280;3042;43.194;27.646;2023-01-10T09:00:36;101156.34;;;18.56;100.00
6028;BME280;3042;43.194;27.646;2023-01-10T09:03:05;101151.25;;;18.63;100.00
6028;BME280;3042;43.194;27.646;2023-01-10T09:05:33;101158.53;;;18.79;100.00
6028;BME280;3042;43.194;27.646;2023-01-10T09:08:01;100978.94;;;18.35;100.00
6028;BME280;3042;43.194;27.646;2023-01-10T09:10:29;101159.84;;;19.04;100.00
6028;BME280;3042;43.194;27.646;2023-01-10T09:12:57;101152.22;;;19.18;100.00
6028;BME280;3042;43.194;27.646;2023-01-10T09:15:29;101090.16;;;19.15;100.00
6028;BME280;3042;43.194;27.646;2023-01-10T09:17:58;101138.56;;;19.40;100.00
6028;BME280;3042;43.194;27.646;2023-01-10T09:20:27;101132.88;;;19.69;100.00
6028;BME280;3042;43.194;27.646;2023-01-10T09:22:55;101018.75;;;18.72;100.00
6028;BME280;3042;43.194;27.646;2023-01-10T09:25:23;101044.38;;;18.90;100.00
6028;BME280;3042;43.194;27.646;2023-01-10T09:27:55;101101.78;;;20.01;100.00
6028;BME280;3042;43.194;27.646;2023-01-10T09:30:22;101124.19;;;19.72;100.00
6028;BME280;3042;43.194;27.646;2023-01-10T09:32:52;101086.94;;;20.03;100.00
6028;BME280;3042;43.194;27.646;2023-01-10T09:35:19;101097.34;;;19.93;100.00
6028;BME280;3042;43.194;27.646;2023-01-10T09:37:47;101085.41;;;20.21;100.00
6028;BME280;3042;43.194;27.646;2023-01-10T09:40:15;101074.50;;;20.68;100.00
6028;BME280;3042;43.194;27.646;2023-01-10T09:42:53;101065.72;;;20.66;100.00
6028;BME280;3042;43.194;27.646;2023-01-10T09:45:29;100910.56;;;19.42;100.00
6028;BME280;3042;43.194;27.646;2023-01-10T09:48:02;101077.75;;;20.45;100.00
6028;BME280;3042;43.194;27.646;2023-01-10T09:50:39;101060.47;;;20.69;100.00
6028;BME280;3042;43.194;27.646;2023-01-10T09:53:12;101053.63;;;20.90;100.00
6028;BME280;3042;43.194;27.646;2023-01-10T09:55:42;101071.66;;;20.50;100.00
6028;BME280;3042;43.194;27.646;2023-01-10T09:58:13;100863.47;;;19.48;100.00
6028;BME280;3042;43.194;27.646;2023-01-10T10:00:43;101042.22;;;20.84;100.00
6028;BME280;3042;43.194;27.646;2023-01-10T10:03:23;101034.34;;;20.84;100.00
6028;BME280;3042;43.194;27.646;2023-01-10T10:05:53;101051.03;;;20.91;100.00
6028;BME280;3042;43.194;27.646;2023-01-10T10:08:20;101018.19;;;20.38;100.00
6028;BME280;3042;43.194;27.646;2023-01-10T10:10:58;101055.28;;;20.75;100.00
6028;BME280;3042;43.194;27.646;2023-01-10T10:13:35;101053.38;;;20.56;100.00
6028;BME280;3042;43.194;27.646;2023-01-10T10:16:13;101049.88;;;20.57;100.00
6028;BME280;3042;43.194;27.646;2023-01-10T10:18:52;101056.53;;;20.21;100.00
6028;BME280;3042;43.194;27.646;2023-01-10T10:21:27;101051.56;;;20.52;100.00
6028;BME280;3042;43.194;27.646;2023-01-10T10:24:08;101058.38;;;20.31;100.00
6028;BME280;3042;43.194;27.646;2023-01-10T10:26:45;101064.25;;;20.09;100.00
6028;BME280;3042;43.194;27.646;2023-01-10T10:32:37;101059.56;;;19.77;100.00
6028;BME280;3042;43.194;27.646;2023-01-10T10:35:17;101062.47;;;19.36;100.00
6028;BME280;3042;43.194;27.646;2023-01-10T10:37:51;101052.53;;;19.09;100.00
6028;BME280;3042;43.194;27.646;2023-01-10T10:40:22;101032.22;;;19.58;100.00
6028;BME280;3042;43.194;27.646;2023-01-10T10:42:52;101023.75;;;19.80;100.00
6028;BME280;3042;43.194;27.646;2023-01-10T10:45:23;100916.97;;;18.94;100.00
6028;BME280;3042;43.194;27.646;2023-01-10T10:47:56;101023.53;;;19.64;100.00
6028;BME280;3042;43.194;27.646;2023-01-10T10:50:31;100825.91;;;18.68;100.00
6028;BME280;3042;43.194;27.646;2023-01-10T10:53:00;101032.94;;;19.46;100.00
6028;BME280;3042;43.194;27.646;2023-01-10T10:55:31;101019.09;;;19.59;100.00
6028;BME280;3042;43.194;27.646;2023-01-10T10:58:01;101022.66;;;19.63;100.00
6028;BME280;3042;43.194;27.646;2023-01-10T11:00:29;101001.31;;;20.07;100.00
6028;BME280;3042;43.194;27.646;2023-01-10T11:03:00;101003.91;;;20.09;100.00
6028;BME280;3042;43.194;27.646;2023-01-10T11:05:33;101012.47;;;19.89;100.00
6028;BME280;3042;43.194;27.646;2023-01-10T11:08:05;101010.66;;;19.82;100.00
6028;BME280;3042;43.194;27.646;2023-01-10T11:10:35;101012.00;;;19.49;100.00
6028;BME280;3042;43.194;27.646;2023-01-10T11:13:11;101008.34;;;19.38;100.00
6028;BME280;3042;43.194;27.646;2023-01-10T11:15:41;101000.50;;;19.36;100.00
6028;BME280;3042;43.194;27.646;2023-01-10T11:18:14;100996.09;;;19.34;100.00
6028;BME280;3042;43.194;27.646;2023-01-10T11:20:51;101001.13;;;19.18;100.00
6028;BME280;3042;43.194;27.646;2023-01-10T11:23:26;100994.22;;;19.24;100.00
6028;BME280;3042;43.194;27.646;2023-01-10T11:25:55;101008.63;;;18.92;100.00
6028;BME280;3042;43.194;27.646;2023-01-10T11:28:27;100985.88;;;19.55;100.00
6028;BME280;3042;43.194;27.646;2023-01-10T11:30:56;100898.06;;;18.51;100.00
6028;BME280;3042;43.194;27.646;2023-01-10T11:33:27;100999.19;;;19.05;100.00
6028;BME280;3042;43.194;27.646;2023-01-10T11:35:59;101005.53;;;18.63;100.00
6028;BME280;3042;43.194;27.646;2023-01-10T11:38:27;100873.47;;;17.83;100.00
6028;BME280;3042;43.194;27.646;2023-01-10T11:40:57;101012.44;;;18.58;100.00
6028;BME280;3042;43.194;27.646;2023-01-10T11:43:28;101011.31;;;18.41;100.00
6028;BME280;3042;43.194;27.646;2023-01-10T11:45:57;101009.03;;;18.10;100.00
6028;BME280;3042;43.194;27.646;2023-01-10T11:48:33;101004.84;;;18.20;100.00
6028;BME280;3042;43.194;27.646;2023-01-10T11:51:16;100997.28;;;18.37;100.00
6028;BME280;3042;43.194;27.646;2023-01-10T11:53:45;101007.72;;;18.35;100.00
6028;BME280;3042;43.194;27.646;2023-01-10T11:56:22;100995.06;;;18.63;100.00
6028;BME280;3042;43.194;27.646;2023-01-10T11:58:51;100923.41;;;17.51;100.00
6028;BME280;3042;43.194;27.646;2023-01-10T12:01:27;100899.31;;;17.68;100.00
6028;BME280;3042;43.194;27.646;2023-01-10T12:03:55;101001.75;;;18.43;100.00
6028;BME280;3042;43.194;27.646;2023-01-10T12:06:25;100986.41;;;18.67;100.00
6028;BME280;3042;43.194;27.646;2023-01-10T12:08:53;100998.25;;;18.44;100.00
6028;BME280;3042;43.194;27.646;2023-01-10T12:11:26;100989.59;;;18.48;100.00
6028;BME280;3042;43.194;27.646;2023-01-10T12:13:56;100981.06;;;18.61;100.00
6028;BME280;3042;43.194;27.646;2023-01-10T12:16:26;100868.53;;;18.02;100.00
6028;BME280;3042;43.194;27.646;2023-01-10T12:18:55;100994.41;;;18.23;100.00
6028;BME280;3042;43.194;27.646;2023-01-10T12:21:29;100806.69;;;17.50;100.00
6028;BME280;3042;43.194;27.646;2023-01-10T12:24:01;100989.91;;;18.13;100.00
6028;BME280;3042;43.194;27.646;2023-01-10T12:26:31;100972.06;;;18.42;100.00
6028;BME280;3042;43.194;27.646;2023-01-10T12:29:04;100977.72;;;18.17;100.00
6028;BME280;3042;43.194;27.646;2023-01-10T12:31:34;100978.28;;;17.53;100.00
6028;BME280;3042;43.194;27.646;2023-01-10T12:34:06;100974.25;;;17.69;100.00
6028;BME280;3042;43.194;27.646;2023-01-10T12:36:45;100978.59;;;17.68;100.00
6028;BME280;3042;43.194;27.646;2023-01-10T12:39:18;100971.31;;;17.52;100.00
6028;BME280;3042;43.194;27.646;2023-01-10T12:42:01;100970.16;;;17.39;100.00
6028;BME280;3042;43.194;27.646;2023-01-10T12:44:58;100870.38;;;16.30;100.00
6028;BME280;3042;43.194;27.646;2023-01-10T12:47:31;100979.22;;;16.75;100.00
6028;BME280;3042;43.194;27.646;2023-01-10T12:50:03;100987.97;;;16.40;100.00
6028;BME280;3042;43.194;27.646;2023-01-10T12:52:40;100982.31;;;16.58;100.00
6028;BME280;3042;43.194;27.646;2023-01-10T12:55:13;100964.25;;;17.05;100.00
6028;BME280;3042;43.194;27.646;2023-01-10T12:57:42;100807.22;;;16.05;100.00
6028;BME280;3042;43.194;27.646;2023-01-10T13:00:19;100972.88;;;17.01;100.00
6028;BME280;3042;43.194;27.646;2023-01-10T13:02:51;100951.66;;;16.50;100.00
6028;BME280;3042;43.194;27.646;2023-01-10T13:05:22;100938.63;;;16.13;100.00
6028;BME280;3042;43.194;27.646;2023-01-10T13:07:53;100977.41;;;16.36;100.00
6028;BME280;3042;43.194;27.646;2023-01-10T13:10:23;100971.13;;;15.93;100.00
6028;BME280;3042;43.194;27.646;2023-01-10T13:12:55;100942.38;;;15.90;100.00
6028;BME280;3042;43.194;27.646;2023-01-10T13:15:27;100981.41;;;16.21;100.00
6028;BME280;3042;43.194;27.646;2023-01-10T13:17:59;100931.28;;;15.98;100.00
6028;BME280;3042;43.194;27.646;2023-01-10T13:20:34;100980.22;;;16.09;100.00
6028;BME280;3042;43.194;27.646;2023-01-10T13:23:14;100974.44;;;16.20;100.00
6028;BME280;3042;43.194;27.646;2023-01-10T13:25:53;100960.47;;;16.53;100.00
6028;BME280;3042;43.194;27.646;2023-01-10T13:28:23;100982.03;;;16.11;100.00
6028;BME280;3042;43.194;27.646;2023-01-10T13:30:53;100970.03;;;16.54;100.00
6028;BME280;3042;43.194;27.646;2023-01-10T13:33:22;100989.38;;;16.62;100.00
6028;BME280;3042;43.194;27.646;2023-01-10T13:35:52;100913.16;;;16.01;100.00
6028;BME280;3042;43.194;27.646;2023-01-10T13:38:25;100999.44;;;16.47;100.00
6028;BME280;3042;43.194;27.646;2023-01-10T13:40:58;101006.41;;;16.48;100.00
6028;BME280;3042;43.194;27.646;2023-01-10T13:43:59;101008.41;;;16.58;100.00